Time;durP1;ratioP1;P1;durP2;ratioP2;P2;SDS_P1;SDS_P2;PMS_P1;PMS_P2;Temp;Humidity;BMP_temperature;BMP_pressure;BME280_temperature;BME280_humidity;BME280_pressure;Samples;Min_cycle;Max_cycle;Signal;HPM_P1;HPM_P2
2023/04/19 00:00:44;;;;;;;7.67;5.80;;;12.70;99.90;;;;;;7389588;19;20165;-81
2023/04/19 00:03:09;;;;;;;6.03;5.05;;;12.70;99.90;;;;;;7386586;19;20162;-80
2023/04/19 00:05:37;;;;;;;7.70;5.67;;;12.70;99.90;;;;;;7390634;19;20189;-80
2023/04/19 00:08:04;;;;;;;8.00;5.73;;;12.90;99.90;;;;;;7388511;19;20191;-81
2023/04/19 00:10:30;;;;;;;7.73;5.40;;;12.70;99.90;;;;;;7390017;19;20165;-80
2023/04/19 00:12:56;;;;;;;7.87;6.20;;;12.60;99.90;;;;;;7389602;19;20494;-80
2023/04/19 00:15:23;;;;;;;7.80;5.70;;;12.70;99.90;;;;;;7386416;19;20139;-79
2023/04/19 00:17:49;;;;;;;8.57;5.90;;;12.70;99.90;;;;;;7388536;19;20178;-81
2023/04/19 00:20:15;;;;;;;6.80;5.70;;;12.70;99.90;;;;;;7386699;19;20154;-80
2023/04/19 00:22:40;;;;;;;9.60;6.43;;;12.70;99.90;;;;;;7385407;19;20154;-80
2023/04/19 00:25:06;;;;;;;8.10;6.00;;;12.80;99.90;;;;;;7388320;19;20165;-82
2023/04/19 00:27:32;;;;;;;7.63;5.90;;;12.70;99.90;;;;;;7387610;19;20142;-82
2023/04/19 00:29:58;;;;;;;8.70;5.83;;;12.60;99.90;;;;;;7388492;19;20145;-81
2023/04/19 00:32:24;;;;;;;8.00;5.97;;;12.60;99.90;;;;;;7386347;19;20147;-81
2023/04/19 00:34:49;;;;;;;8.00;6.27;;;12.50;99.90;;;;;;7385522;19;20147;-81
2023/04/19 00:37:15;;;;;;;8.70;6.27;;;12.60;99.90;;;;;;7385011;19;20205;-81
2023/04/19 00:39:41;;;;;;;9.23;6.77;;;12.60;99.90;;;;;;7388854;19;20158;-81
2023/04/19 00:42:07;;;;;;;9.63;6.90;;;12.60;99.90;;;;;;7386340;19;20170;-81
2023/04/19 00:44:32;;;;;;;7.93;5.93;;;12.60;99.90;;;;;;7386954;19;20162;-82
2023/04/19 00:46:59;;;;;;;8.83;6.73;;;12.60;99.90;;;;;;7386997;19;20502;-80
2023/04/19 00:49:28;;;;;;;8.70;6.20;;;12.60;99.90;;;;;;7387502;19;20178;-82
2023/04/19 00:51:54;;;;;;;9.13;6.93;;;12.60;99.90;;;;;;7388448;19;20308;-81
2023/04/19 00:54:21;;;;;;;9.00;6.70;;;12.50;99.90;;;;;;7385132;19;20157;-79
2023/04/19 00:56:46;;;;;;;9.43;6.43;;;12.50;99.90;;;;;;7391244;19;20150;-79
2023/04/19 00:59:14;;;;;;;11.03;6.90;;;12.60;99.90;;;;;;7392727;19;20139;-81
2023/04/19 01:01:56;;;;;;;10.00;6.60;;;12.50;99.90;;;;;;7393781;19;20952;-81
2023/04/19 01:04:22;;;;;;;8.60;6.37;;;12.50;99.90;;;;;;7392623;19;21316;-79
2023/04/19 01:06:50;;;;;;;7.83;5.93;;;12.50;99.90;;;;;;7394109;19;20143;-80
2023/04/19 01:09:15;;;;;;;10.73;6.85;;;12.40;99.90;;;;;;7392684;19;20161;-81
2023/04/19 01:11:41;;;;;;;9.37;6.83;;;12.50;99.90;;;;;;7392723;19;20142;-81
2023/04/19 01:14:07;;;;;;;9.67;7.40;;;12.50;99.90;;;;;;7392501;19;20213;-79
2023/04/19 01:16:35;;;;;;;9.43;6.40;;;12.60;99.90;;;;;;7394805;19;20503;-80
2023/04/19 01:19:01;;;;;;;9.23;6.50;;;12.50;99.90;;;;;;7391777;19;20135;-81
2023/04/19 01:21:29;;;;;;;9.53;6.37;;;12.50;99.90;;;;;;7392672;19;20141;-80
2023/04/19 01:23:55;;;;;;;10.43;6.60;;;12.40;99.90;;;;;;7391057;19;20518;-81
2023/04/19 01:26:21;;;;;;;10.30;6.80;;;12.60;99.90;;;;;;7391594;19;20161;-81
2023/04/19 01:28:46;;;;;;;8.77;6.37;;;12.50;99.90;;;;;;7392345;19;20855;-81
2023/04/19 01:31:12;;;;;;;9.30;6.87;;;12.50;99.90;;;;;;7394725;19;20205;-80
2023/04/19 01:33:38;;;;;;;8.63;6.77;;;12.40;99.90;;;;;;7394514;19;20777;-79
2023/04/19 01:36:04;;;;;;;9.73;6.67;;;12.40;99.90;;;;;;7392083;19;20193;-80
2023/04/19 01:38:30;;;;;;;11.10;7.53;;;12.50;99.90;;;;;;7389554;19;20134;-80
2023/04/19 01:40:56;;;;;;;8.73;6.83;;;12.50;99.90;;;;;;7392726;19;20598;-81
2023/04/19 01:43:22;;;;;;;10.37;6.73;;;12.50;99.90;;;;;;7391386;19;20127;-81
2023/04/19 01:45:52;;;;;;;10.07;7.43;;;12.50;99.90;;;;;;7395553;19;20137;-82
2023/04/19 01:48:17;;;;;;;10.85;6.90;;;12.40;99.90;;;;;;7392802;19;20603;-80
2023/04/19 01:50:43;;;;;;;10.60;6.60;;;12.60;99.90;;;;;;7392901;19;20195;-82
2023/04/19 01:53:09;;;;;;;10.63;7.00;;;12.40;99.90;;;;;;7389907;19;20126;-80
2023/04/19 01:55:37;;;;;;;9.13;6.40;;;12.40;99.90;;;;;;7391653;19;20134;-81
2023/04/19 01:58:07;;;;;;;11.07;7.60;;;12.30;99.90;;;;;;7390986;19;20127;-80
2023/04/19 02:00:32;;;;;;;11.20;7.57;;;12.40;99.90;;;;;;7392273;19;20162;-80
2023/04/19 02:03:05;;;;;;;9.60;7.20;;;12.40;99.90;;;;;;7391262;19;20149;-81
2023/04/19 02:05:31;;;;;;;11.40;7.70;;;12.40;99.90;;;;;;7391783;19;20143;-80
2023/04/19 02:07:57;;;;;;;10.87;7.43;;;12.20;99.90;;;;;;7391679;19;20438;-80
2023/04/19 02:10:23;;;;;;;12.20;8.17;;;12.30;99.90;;;;;;7390329;19;20243;-81
2023/04/19 02:12:49;;;;;;;10.47;7.73;;;12.30;99.90;;;;;;7391990;19;20151;-80
2023/04/19 02:15:14;;;;;;;10.90;6.97;;;12.40;99.90;;;;;;7382399;19;20899;-79
2023/04/19 02:17:40;;;;;;;8.63;6.53;;;12.20;99.90;;;;;;7391773;19;20142;-80
2023/04/19 02:20:09;;;;;;;10.70;7.47;;;12.20;99.90;;;;;;7393419;19;20139;-81
2023/04/19 02:22:35;;;;;;;12.17;8.90;;;12.20;99.90;;;;;;7388681;19;20210;-81
2023/04/19 02:25:01;;;;;;;11.80;7.80;;;12.20;99.90;;;;;;7386753;19;20138;-80
2023/04/19 02:27:27;;;;;;;11.40;6.77;;;12.20;99.90;;;;;;7392931;19;20526;-81
2023/04/19 02:29:53;;;;;;;13.03;8.37;;;12.30;99.90;;;;;;7392981;19;20198;-80
2023/04/19 02:32:19;;;;;;;10.17;7.47;;;12.30;99.90;;;;;;7389025;19;20150;-81
2023/04/19 02:34:45;;;;;;;10.90;7.27;;;12.30;99.90;;;;;;7392564;19;20145;-80
2023/04/19 02:37:10;;;;;;;12.33;8.07;;;12.30;99.90;;;;;;7388474;19;20338;-81
2023/04/19 02:39:36;;;;;;;11.70;7.93;;;12.20;99.90;;;;;;7391664;19;20163;-80
2023/04/19 02:42:02;;;;;;;9.17;7.30;;;12.20;99.90;;;;;;7384738;19;21723;-80
2023/04/19 02:44:28;;;;;;;14.07;8.50;;;12.20;99.90;;;;;;7391957;19;20163;-79
2023/04/19 02:46:54;;;;;;;11.37;7.90;;;12.20;99.90;;;;;;7391085;19;20804;-81
2023/04/19 02:49:21;;;;;;;11.90;8.45;;;12.10;99.90;;;;;;7392536;19;20163;-80
2023/04/19 02:51:47;;;;;;;11.70;7.40;;;12.10;99.90;;;;;;7391665;19;20849;-80
2023/04/19 02:54:13;;;;;;;12.90;8.13;;;12.10;99.90;;;;;;7389402;19;20162;-81
2023/04/19 02:56:39;;;;;;;14.00;8.80;;;12.10;99.90;;;;;;7389219;19;20434;-81
2023/04/19 02:59:05;;;;;;;14.07;8.37;;;12.00;99.90;;;;;;7388666;19;20617;-80
2023/04/19 03:01:31;;;;;;;11.53;8.13;;;12.10;99.90;;;;;;7390270;19;20146;-80
2023/04/19 03:03:58;;;;;;;12.17;8.10;;;12.10;99.90;;;;;;7389621;19;20647;-81
2023/04/19 03:06:25;;;;;;;12.20;8.50;;;12.10;99.90;;;;;;7390022;19;20138;-81
2023/04/19 03:08:51;;;;;;;12.67;8.53;;;12.20;99.90;;;;;;7391378;19;20141;-80
2023/04/19 03:11:17;;;;;;;13.70;8.37;;;12.10;99.90;;;;;;7389236;19;20169;-80
2023/04/19 03:13:43;;;;;;;12.07;8.30;;;12.10;99.90;;;;;;7389520;19;20620;-80
2023/04/19 03:16:09;;;;;;;12.60;8.37;;;12.10;99.90;;;;;;7390023;19;20591;-80
2023/04/19 03:18:35;;;;;;;12.17;8.13;;;12.10;99.90;;;;;;7387252;19;20151;-80
2023/04/19 03:21:01;;;;;;;12.47;8.63;;;12.20;99.90;;;;;;7390785;19;20504;-80
2023/04/19 03:23:27;;;;;;;10.60;7.90;;;12.20;99.90;;;;;;7389122;19;20590;-81
2023/04/19 03:25:53;;;;;;;11.20;7.80;;;12.20;99.90;;;;;;7387210;19;20126;-80
2023/04/19 03:28:19;;;;;;;10.60;8.30;;;12.20;99.90;;;;;;7389633;19;20137;-80
2023/04/19 03:30:45;;;;;;;11.37;8.17;;;12.00;99.90;;;;;;7391975;19;20131;-80
2023/04/19 03:33:11;;;;;;;10.50;7.57;;;12.10;99.90;;;;;;7389750;19;20222;-79
2023/04/19 03:35:37;;;;;;;10.97;8.10;;;12.10;99.90;;;;;;7391106;19;20143;-80
2023/04/19 03:38:02;;;;;;;11.60;8.37;;;12.20;99.90;;;;;;7390849;19;20131;-81
2023/04/19 03:40:29;;;;;;;14.03;8.60;;;12.10;99.90;;;;;;7389487;19;20229;-80
2023/04/19 03:42:55;;;;;;;12.50;9.20;;;12.00;99.90;;;;;;7389358;19;20138;-83
2023/04/19 03:45:21;;;;;;;13.90;8.33;;;12.10;99.90;;;;;;7388380;19;20158;-81
2023/04/19 03:47:47;;;;;;;11.13;8.57;;;12.00;99.90;;;;;;7388483;19;20142;-81
2023/04/19 03:50:12;;;;;;;11.63;9.07;;;11.90;99.90;;;;;;7388046;19;20138;-81
2023/04/19 03:52:38;;;;;;;12.97;9.30;;;11.90;99.90;;;;;;7388057;19;20138;-81
2023/04/19 03:55:05;;;;;;;11.93;8.70;;;11.90;99.90;;;;;;7388924;19;20138;-81
2023/04/19 03:57:31;;;;;;;13.50;9.13;;;11.90;99.90;;;;;;7385373;19;20167;-80
2023/04/19 03:59:56;;;;;;;11.70;8.27;;;11.90;99.90;;;;;;7390432;19;20243;-80
2023/04/19 04:02:22;;;;;;;11.20;8.53;;;11.90;99.90;;;;;;7388894;19;20142;-80
2023/04/19 04:04:53;;;;;;;12.33;8.03;;;11.90;99.90;;;;;;7391189;19;20154;-80
2023/04/19 04:07:20;;;;;;;11.43;8.60;;;11.90;99.90;;;;;;7389518;19;20188;-80
2023/04/19 04:09:47;;;;;;;12.40;8.63;;;11.90;99.90;;;;;;7388784;19;20162;-80
2023/04/19 04:12:13;;;;;;;13.10;9.37;;;11.90;99.90;;;;;;7386629;19;20135;-82
2023/04/19 04:14:38;;;;;;;12.83;9.10;;;11.80;99.90;;;;;;7386980;19;20607;-81
2023/04/19 04:17:04;;;;;;;13.27;9.00;;;11.80;99.90;;;;;;7387072;19;20143;-82
2023/04/19 04:19:30;;;;;;;12.53;8.63;;;11.90;99.90;;;;;;7386880;19;20222;-82
2023/04/19 04:21:59;;;;;;;12.97;8.90;;;11.80;99.90;;;;;;7386188;19;20142;-82
2023/04/19 04:24:25;;;;;;;11.97;8.50;;;11.70;99.90;;;;;;7388694;19;20471;-82
2023/04/19 04:26:52;;;;;;;11.23;8.20;;;11.70;99.90;;;;;;7386933;19;20251;-82
2023/04/19 04:29:17;;;;;;;12.47;8.80;;;11.70;99.90;;;;;;7389088;19;20509;-81
2023/04/19 04:31:43;;;;;;;12.73;9.53;;;11.70;99.90;;;;;;7390886;19;20157;-83
2023/04/19 04:34:09;;;;;;;13.37;9.33;;;11.70;99.90;;;;;;7395509;19;20592;-82
2023/04/19 04:36:38;;;;;;;16.10;9.70;;;11.60;99.90;;;;;;7392364;19;20619;-81
2023/04/19 04:39:05;;;;;;;11.77;8.73;;;11.60;99.90;;;;;;7397746;19;20134;-81
2023/04/19 04:41:31;;;;;;;13.23;9.10;;;11.60;99.90;;;;;;7394937;19;20170;-82
2023/04/19 04:43:57;;;;;;;13.87;9.73;;;11.50;99.90;;;;;;7392663;19;20154;-82
2023/04/19 04:46:24;;;;;;;13.73;9.17;;;11.50;99.90;;;;;;7394584;19;20175;-82
2023/04/19 04:48:51;;;;;;;12.60;8.70;;;11.50;99.90;;;;;;7394766;19;20230;-81
2023/04/19 04:51:17;;;;;;;14.23;9.47;;;11.40;99.90;;;;;;7394995;19;20620;-80
2023/04/19 04:53:42;;;;;;;11.77;8.77;;;11.40;99.90;;;;;;7393369;19;20172;-82
2023/04/19 04:56:08;;;;;;;14.37;9.63;;;11.60;99.90;;;;;;7393170;19;20167;-81
2023/04/19 04:58:34;;;;;;;11.73;8.67;;;11.40;99.90;;;;;;7392275;19;20694;-82
2023/04/19 05:00:59;;;;;;;14.67;9.30;;;11.30;99.90;;;;;;7395002;19;20135;-81
2023/04/19 05:03:26;;;;;;;13.00;9.10;;;11.40;99.90;;;;;;7393541;19;20158;-81
2023/04/19 05:05:52;;;;;;;12.90;9.10;;;11.40;99.90;;;;;;7397959;19;20134;-81
2023/04/19 05:08:17;;;;;;;13.20;9.57;;;11.30;99.90;;;;;;7393438;19;20152;-80
2023/04/19 05:10:43;;;;;;;13.10;9.70;;;11.40;99.90;;;;;;7395096;19;20134;-82
2023/04/19 05:13:09;;;;;;;12.17;8.60;;;11.30;99.90;;;;;;7394000;19;20137;-81
2023/04/19 05:15:35;;;;;;;12.43;9.20;;;11.40;99.90;;;;;;7393996;19;20579;-80
2023/04/19 05:18:01;;;;;;;16.50;9.43;;;11.40;99.90;;;;;;7387483;19;20318;-79
2023/04/19 05:20:28;;;;;;;13.27;9.40;;;11.40;99.90;;;;;;7393153;19;20619;-80
2023/04/19 05:22:59;;;;;;;12.40;8.90;;;11.40;99.90;;;;;;7391491;19;20146;-83
2023/04/19 05:25:28;;;;;;;12.70;9.20;;;11.40;99.90;;;;;;7392457;19;20166;-82
2023/04/19 05:27:55;;;;;;;12.87;9.47;;;11.40;99.90;;;;;;7391245;19;20142;-81
2023/04/19 05:30:22;;;;;;;16.77;10.07;;;11.40;99.90;;;;;;7392397;19;20143;-81
2023/04/19 05:32:51;;;;;;;11.07;9.63;;;11.40;99.90;;;;;;7400017;19;20147;-85
2023/04/19 05:35:18;;;;;;;12.13;8.77;;;11.40;99.90;;;;;;7391690;19;20142;-81
2023/04/19 05:37:44;;;;;;;13.20;9.37;;;11.40;99.90;;;;;;7390686;19;20239;-83
2023/04/19 05:40:09;;;;;;;17.27;9.23;;;11.50;99.90;;;;;;7395630;19;20135;-82
2023/04/19 05:42:35;;;;;;;14.77;9.93;;;11.40;99.90;;;;;;7391999;19;20599;-82
2023/04/19 05:45:01;;;;;;;12.80;9.27;;;11.50;99.90;;;;;;7393264;19;20601;-82
2023/04/19 05:47:27;;;;;;;14.63;9.67;;;11.50;99.90;;;;;;7393724;19;20599;-81
2023/04/19 05:49:52;;;;;;;12.43;8.90;;;11.50;99.90;;;;;;7393488;19;20142;-84
2023/04/19 05:52:18;;;;;;;13.93;8.73;;;11.60;99.90;;;;;;7391593;19;20154;-83
2023/04/19 05:54:44;;;;;;;12.37;9.07;;;11.50;99.90;;;;;;7392760;19;20159;-81
2023/04/19 05:57:10;;;;;;;13.03;9.17;;;11.50;99.90;;;;;;7388922;19;20178;-81
2023/04/19 05:59:35;;;;;;;13.73;9.37;;;11.60;99.90;;;;;;7386308;19;20138;-83
2023/04/19 06:02:01;;;;;;;10.93;8.33;;;11.60;99.90;;;;;;7391775;19;20497;-83
2023/04/19 06:04:27;;;;;;;12.67;8.73;;;11.60;99.90;;;;;;7394483;19;20156;-82
2023/04/19 06:06:53;;;;;;;11.17;8.30;;;11.60;99.90;;;;;;7396082;19;20208;-81
2023/04/19 06:09:19;;;;;;;13.20;8.17;;;11.70;99.90;;;;;;7395077;19;20130;-84
2023/04/19 06:11:45;;;;;;;13.03;9.47;;;11.80;99.90;;;;;;7391623;19;20247;-83
2023/04/19 06:14:12;;;;;;;11.03;8.13;;;11.80;99.90;;;;;;7391984;19;20143;-84
2023/04/19 06:16:39;;;;;;;18.10;9.27;;;11.80;99.90;;;;;;7392255;19;20624;-81
2023/04/19 06:19:07;;;;;;;13.57;9.00;;;11.70;99.90;;;;;;7389549;19;20135;-85
2023/04/19 06:21:34;;;;;;;13.00;8.93;;;11.80;99.90;;;;;;7386091;19;20131;-82
2023/04/19 06:24:00;;;;;;;11.50;8.20;;;11.80;99.90;;;;;;7387310;19;20155;-81
2023/04/19 06:26:27;;;;;;;11.43;8.27;;;11.80;99.90;;;;;;7389542;19;20143;-79
2023/04/19 06:28:53;;;;;;;11.73;8.73;;;11.90;99.90;;;;;;7388387;19;20143;-78
2023/04/19 06:31:18;;;;;;;11.73;8.50;;;11.90;99.90;;;;;;7390253;19;20127;-79
2023/04/19 06:33:44;;;;;;;10.97;7.80;;;11.90;99.90;;;;;;7392648;19;20210;-79
2023/04/19 06:36:10;;;;;;;11.23;8.53;;;11.90;99.90;;;;;;7385176;19;20138;-76
2023/04/19 06:38:40;;;;;;;11.60;8.57;;;11.90;99.90;;;;;;7389897;19;20233;-78
2023/04/19 06:41:06;;;;;;;16.07;8.93;;;11.90;99.90;;;;;;7389663;19;20153;-77
2023/04/19 06:43:33;;;;;;;11.47;7.90;;;11.80;99.90;;;;;;7389935;19;20142;-80
2023/04/19 06:45:59;;;;;;;9.57;7.43;;;11.90;99.90;;;;;;7392364;19;20127;-79
2023/04/19 06:48:26;;;;;;;12.97;8.13;;;11.80;99.90;;;;;;7390785;19;20146;-76
2023/04/19 06:50:52;;;;;;;10.40;8.03;;;11.90;99.90;;;;;;7388945;19;20219;-77
2023/04/19 06:53:19;;;;;;;13.67;8.60;;;12.00;99.90;;;;;;7383227;19;20454;-75
2023/04/19 06:55:45;;;;;;;11.23;7.77;;;12.00;99.90;;;;;;7388060;19;20135;-75
2023/04/19 06:58:10;;;;;;;10.83;7.87;;;12.00;99.90;;;;;;7387181;19;20130;-74
2023/04/19 07:00:36;;;;;;;10.30;8.50;;;12.10;99.90;;;;;;7385065;19;20421;-77
2023/04/19 07:03:04;;;;;;;12.37;8.03;;;12.20;99.90;;;;;;7388077;19;20624;-75
2023/04/19 07:05:30;;;;;;;11.97;8.40;;;12.30;99.90;;;;;;7389665;19;20139;-76
2023/04/19 07:07:56;;;;;;;13.40;8.03;;;12.40;99.90;;;;;;7387874;19;20142;-76
2023/04/19 07:10:22;;;;;;;13.43;8.93;;;12.40;99.90;;;;;;7387318;19;20138;-75
2023/04/19 07:12:48;;;;;;;12.43;9.10;;;12.20;99.90;;;;;;7388453;19;20150;-76
2023/04/19 07:15:14;;;;;;;11.40;8.03;;;12.20;99.90;;;;;;7387087;19;20154;-75
2023/04/19 07:17:40;;;;;;;10.43;7.53;;;12.30;99.90;;;;;;7386243;19;20143;-76
2023/04/19 07:20:06;;;;;;;9.87;7.53;;;12.40;99.90;;;;;;7390058;19;20155;-75
2023/04/19 07:22:32;;;;;;;13.37;8.77;;;12.50;99.90;;;;;;7390009;19;20134;-75
2023/04/19 07:24:58;;;;;;;11.23;8.13;;;12.60;99.90;;;;;;7390213;19;20139;-75
2023/04/19 07:27:24;;;;;;;10.90;8.10;;;12.70;99.90;;;;;;7389551;19;20599;-75
2023/04/19 07:29:50;;;;;;;10.07;7.77;;;12.70;99.90;;;;;;7385064;19;20138;-74
2023/04/19 07:32:16;;;;;;;11.83;7.80;;;12.80;99.90;;;;;;7384954;19;20138;-76
2023/04/19 07:34:44;;;;;;;12.90;8.37;;;12.80;99.90;;;;;;7387331;19;20178;-76
2023/04/19 07:37:11;;;;;;;11.90;8.33;;;12.90;99.90;;;;;;7393863;19;20640;-75
2023/04/19 07:39:37;;;;;;;14.10;8.10;;;12.80;99.90;;;;;;7391058;19;20146;-74
2023/04/19 07:42:03;;;;;;;12.10;7.60;;;12.80;99.90;;;;;;7391114;19;20170;-76
2023/04/19 07:44:29;;;;;;;10.13;7.57;;;13.10;99.90;;;;;;7389834;19;20142;-76
2023/04/19 07:46:55;;;;;;;10.33;7.90;;;13.50;99.90;;;;;;7389256;19;20199;-76
2023/04/19 07:49:22;;;;;;;11.40;7.27;;;13.60;99.90;;;;;;7386599;19;20146;-77
2023/04/19 07:51:48;;;;;;;11.17;8.00;;;13.90;99.90;;;;;;7392404;19;20363;-78
2023/04/19 07:54:16;;;;;;;10.70;7.68;;;14.10;99.90;;;;;;7397831;19;20159;-77
2023/04/19 07:56:42;;;;;;;10.85;7.35;;;14.10;99.90;;;;;;7385721;19;20650;-76
2023/04/19 07:59:08;;;;;;;9.37;7.47;;;14.10;99.90;;;;;;7387856;19;20142;-76
2023/04/19 08:01:35;;;;;;;9.77;6.97;;;14.40;99.90;;;;;;7384233;19;20158;-76
2023/04/19 08:04:01;;;;;;;10.83;7.43;;;14.40;99.90;;;;;;7385666;19;20139;-75
2023/04/19 08:06:28;;;;;;;12.07;8.27;;;14.30;99.90;;;;;;7385443;19;20138;-76
2023/04/19 08:08:54;;;;;;;10.70;6.83;;;14.30;99.90;;;;;;7385747;19;20168;-76
2023/04/19 08:11:20;;;;;;;9.87;6.57;;;14.20;99.90;;;;;;7385164;19;20584;-76
2023/04/19 08:13:45;;;;;;;11.00;7.83;;;14.30;99.90;;;;;;7384358;19;20150;-77
2023/04/19 08:16:11;;;;;;;13.25;7.53;;;14.30;99.90;;;;;;7387577;19;20135;-77
2023/04/19 08:18:37;;;;;;;8.68;6.35;;;14.10;99.90;;;;;;7382749;19;20162;-75
2023/04/19 08:21:03;;;;;;;9.27;7.00;;;13.90;99.90;;;;;;7387819;19;20138;-76
2023/04/19 08:23:30;;;;;;;7.90;6.43;;;13.80;99.90;;;;;;7385085;19;20150;-74
2023/04/19 08:25:57;;;;;;;8.20;6.20;;;13.70;99.90;;;;;;7383954;19;20151;-75
2023/04/19 08:28:23;;;;;;;7.90;6.33;;;13.60;99.90;;;;;;7386803;19;20139;-76
2023/04/19 08:30:49;;;;;;;7.60;5.68;;;13.60;99.90;;;;;;7384886;19;20471;-76
2023/04/19 08:33:15;;;;;;;7.93;5.50;;;13.70;99.90;;;;;;7382203;19;20142;-75
2023/04/19 08:35:41;;;;;;;6.63;5.07;;;13.80;99.90;;;;;;7382332;19;20157;-75
2023/04/19 08:38:07;;;;;;;8.53;5.27;;;13.80;99.90;;;;;;7384546;19;20147;-75
2023/04/19 08:40:34;;;;;;;9.13;5.70;;;13.90;99.90;;;;;;7387993;19;20459;-76
2023/04/19 08:43:05;;;;;;;7.83;5.63;;;13.80;99.90;;;;;;7389268;19;20142;-76
2023/04/19 08:45:32;;;;;;;12.00;5.73;;;13.80;99.90;;;;;;7385155;19;20489;-75
2023/04/19 08:47:58;;;;;;;9.13;5.70;;;13.70;99.90;;;;;;7385278;19;20214;-75
2023/04/19 08:50:27;;;;;;;7.93;5.77;;;13.70;99.90;;;;;;7385400;19;20164;-77
2023/04/19 08:52:53;;;;;;;7.70;6.23;;;13.70;99.90;;;;;;7385851;19;20161;-77
2023/04/19 08:55:20;;;;;;;6.97;5.13;;;13.80;99.90;;;;;;7387959;19;20138;-77
2023/04/19 08:57:47;;;;;;;10.07;5.50;;;13.60;99.90;;;;;;7384459;19;20195;-76
2023/04/19 09:00:14;;;;;;;7.63;5.33;;;13.70;99.90;;;;;;7386703;19;20131;-77
2023/04/19 09:02:49;;;;;;;7.00;5.30;;;13.70;99.90;;;;;;7385123;19;20178;-76
2023/04/19 09:05:16;;;;;;;8.13;5.90;;;13.80;99.90;;;;;;7384504;19;20133;-76
2023/04/19 09:07:43;;;;;;;8.27;5.80;;;13.80;99.90;;;;;;7387530;19;20159;-77
2023/04/19 09:10:11;;;;;;;10.73;5.47;;;13.90;99.90;;;;;;7384992;19;20872;-76
2023/04/19 09:12:38;;;;;;;8.83;6.00;;;13.80;99.90;;;;;;7387597;19;20167;-76
2023/04/19 09:15:07;;;;;;;8.47;5.80;;;13.80;99.90;;;;;;7386180;19;20135;-77
2023/04/19 09:17:37;;;;;;;7.22;5.55;;;13.90;99.90;;;;;;7391575;19;20158;-75
2023/04/19 09:20:05;;;;;;;9.02;5.85;;;14.10;99.90;;;;;;7391129;19;20159;-77
2023/04/19 09:22:32;;;;;;;7.77;5.30;;;14.10;99.90;;;;;;7375619;19;20799;-76
2023/04/19 09:24:59;;;;;;;9.07;6.23;;;14.20;99.90;;;;;;7396575;19;20150;-76
2023/04/19 09:27:30;;;;;;;8.70;5.50;;;14.20;99.90;;;;;;7396197;19;20536;-78
2023/04/19 09:29:58;;;;;;;9.87;6.40;;;14.20;99.90;;;;;;7394196;19;20142;-77
2023/04/19 09:32:29;;;;;;;8.52;5.93;;;14.10;99.90;;;;;;7405525;19;20161;-78
2023/04/19 09:34:57;;;;;;;9.47;6.77;;;14.00;99.90;;;;;;7383831;19;20233;-77
2023/04/19 09:37:24;;;;;;;9.43;6.33;;;13.80;99.90;;;;;;7391192;19;20135;-77
2023/04/19 09:39:50;;;;;;;10.43;6.95;;;13.80;99.90;;;;;;7394643;19;20145;-76
2023/04/19 09:42:18;;;;;;;8.83;6.33;;;13.70;99.90;;;;;;7392962;19;20595;-77
2023/04/19 09:44:58;;;;;;;9.33;6.70;;;13.80;99.90;;;;;;7396732;19;20151;-78
2023/04/19 09:47:26;;;;;;;8.73;6.40;;;14.00;99.90;;;;;;7386012;19;20145;-78
2023/04/19 09:50:05;;;;;;;8.97;6.27;;;14.10;99.90;;;;;;7393638;19;20175;-78
2023/04/19 09:52:32;;;;;;;8.35;6.45;;;14.20;99.90;;;;;;7379803;19;20154;-77
2023/04/19 09:55:04;;;;;;;9.90;6.50;;;14.30;99.90;;;;;;7381362;19;20497;-75
2023/04/19 09:57:31;;;;;;;7.15;5.57;;;14.40;99.90;;;;;;7382505;19;20139;-76
2023/04/19 10:00:01;;;;;;;8.95;5.97;;;14.40;99.90;;;;;;7385622;19;20170;-76
2023/04/19 10:02:34;;;;;;;7.37;5.40;;;14.50;99.90;;;;;;7390767;19;20147;-75
2023/04/19 10:05:01;;;;;;;6.35;5.32;;;14.50;99.90;;;;;;7392334;19;20154;-75
2023/04/19 10:07:27;;;;;;;8.50;5.90;;;14.50;99.90;;;;;;7389571;19;20134;-76
2023/04/19 10:09:57;;;;;;;7.50;5.95;;;14.50;99.90;;;;;;7391429;19;20145;-75
2023/04/19 10:12:25;;;;;;;7.68;5.88;;;14.50;99.90;;;;;;7389936;19;20614;-76
2023/04/19 10:14:54;;;;;;;7.77;6.00;;;14.60;99.90;;;;;;7392000;19;20146;-75
2023/04/19 10:17:21;;;;;;;9.70;6.37;;;14.50;99.90;;;;;;7391766;19;20198;-76
2023/04/19 10:19:51;;;;;;;8.98;6.43;;;14.60;99.90;;;;;;7391115;19;20158;-76
2023/04/19 10:22:18;;;;;;;11.75;6.70;;;14.80;99.90;;;;;;7392030;19;20615;-76
2023/04/19 10:25:07;;;;;;;12.80;6.68;;;14.90;99.90;;;;;;7390813;19;20638;-76
2023/04/19 10:27:34;;;;;;;8.98;6.25;;;14.80;99.90;;;;;;7387353;19;20157;-75
2023/04/19 10:30:06;;;;;;;8.93;5.50;;;14.90;99.90;;;;;;7390891;19;20538;-75
2023/04/19 10:32:40;;;;;;;8.63;5.97;;;14.60;99.90;;;;;;7392347;19;20154;-77
2023/04/19 10:35:07;;;;;;;7.10;5.28;;;14.50;99.90;;;;;;7393792;19;20651;-76
2023/04/19 10:37:33;;;;;;;7.53;5.07;;;14.50;99.90;;;;;;7388854;19;20158;-76
2023/04/19 10:39:59;;;;;;;7.67;5.17;;;14.50;99.90;;;;;;7391228;19;20145;-78
2023/04/19 10:43:03;;;;;;;7.70;5.32;;;14.50;99.90;;;;;;7387549;19;20154;-77
2023/04/19 10:45:35;;;;;;;7.40;5.43;;;14.50;99.90;;;;;;7383194;19;20143;-76
2023/04/19 10:48:04;;;;;;;6.78;5.50;;;14.30;99.90;;;;;;7389779;19;20509;-78
2023/04/19 10:51:20;;;;;;;6.68;5.50;;;14.10;99.90;;;;;;7387933;19;20142;-78
2023/04/19 10:53:55;;;;;;;8.87;6.07;;;14.00;99.90;;;;;;7389900;19;20137;-77
2023/04/19 10:56:33;;;;;;;7.35;5.10;;;14.00;99.90;;;;;;7387129;19;20487;-75
2023/04/19 10:58:59;;;;;;;8.63;5.60;;;14.00;99.90;;;;;;7388947;19;20580;-76
2023/04/19 11:01:38;;;;;;;9.97;6.83;;;14.00;99.90;;;;;;7388715;19;20645;-78
2023/04/19 11:04:07;;;;;;;7.57;6.03;;;14.00;99.90;;;;;;7389396;19;20134;-77
2023/04/19 11:06:34;;;;;;;9.85;6.40;;;14.00;99.90;;;;;;7390409;19;20588;-78
2023/04/19 11:09:04;;;;;;;9.30;6.05;;;14.00;99.90;;;;;;7389840;19;20142;-77
2023/04/19 11:11:35;;;;;;;7.50;5.87;;;14.00;99.90;;;;;;7391234;19;20156;-78
2023/04/19 11:14:03;;;;;;;8.80;6.07;;;14.10;99.90;;;;;;7391142;19;20685;-77
2023/04/19 11:16:30;;;;;;;6.90;5.38;;;14.10;99.90;;;;;;7390535;19;20165;-76
2023/04/19 11:18:55;;;;;;;8.50;5.77;;;14.00;99.90;;;;;;7395392;19;20157;-77
2023/04/19 11:21:22;;;;;;;7.07;5.65;;;14.00;99.90;;;;;;7388918;19;20134;-79
2023/04/19 11:24:04;;;;;;;6.65;5.35;;;14.00;99.90;;;;;;7391243;19;20242;-80
2023/04/19 11:26:30;;;;;;;9.23;5.87;;;13.90;99.90;;;;;;7386455;19;20154;-78
2023/04/19 11:28:57;;;;;;;7.17;5.87;;;13.90;99.90;;;;;;7392023;19;20135;-79
2023/04/19 11:31:24;;;;;;;8.10;6.47;;;13.80;99.90;;;;;;7387876;19;20626;-79
2023/04/19 11:33:51;;;;;;;9.30;5.77;;;13.70;99.90;;;;;;7391459;19;20162;-79
2023/04/19 11:36:17;;;;;;;10.37;6.67;;;13.70;99.90;;;;;;7388314;19;20131;-79
2023/04/19 11:38:47;;;;;;;10.38;6.57;;;13.70;99.90;;;;;;7390839;19;20330;-80
2023/04/19 11:41:13;;;;;;;7.17;5.90;;;13.60;99.90;;;;;;7390040;19;20154;-79
2023/04/19 11:43:40;;;;;;;9.30;6.53;;;13.50;99.90;;;;;;7388254;19;20154;-79
2023/04/19 11:46:11;;;;;;;9.47;6.80;;;13.50;99.90;;;;;;7390171;19;20146;-78
2023/04/19 11:48:38;;;;;;;8.95;6.13;;;13.50;99.90;;;;;;7388123;19;20286;-79
2023/04/19 11:51:05;;;;;;;8.07;5.80;;;13.50;99.90;;;;;;7386459;19;20139;-76
2023/04/19 11:53:31;;;;;;;9.00;6.73;;;13.40;99.90;;;;;;7387643;19;20666;-75
2023/04/19 11:56:04;;;;;;;9.83;6.90;;;13.40;99.90;;;;;;7388326;19;20157;-76
2023/04/19 11:58:38;;;;;;;12.70;8.23;;;13.30;99.90;;;;;;7387859;19;20138;-76
2023/04/19 12:01:09;;;;;;;12.77;8.60;;;13.30;99.90;;;;;;7386511;19;20154;-77
2023/04/19 12:03:49;;;;;;;15.95;9.10;;;13.10;99.90;;;;;;7387547;19;20138;-78
2023/04/19 12:06:18;;;;;;;12.40;9.15;;;13.00;99.90;;;;;;7388916;19;20274;-77
2023/04/19 12:08:50;;;;;;;12.97;9.30;;;13.00;99.90;;;;;;7389192;19;20127;-80
2023/04/19 12:11:18;;;;;;;14.80;10.57;;;12.90;99.90;;;;;;7388138;19;20154;-78
2023/04/19 12:13:44;;;;;;;12.33;9.23;;;12.90;99.90;;;;;;7385669;19;20588;-78
2023/04/19 12:16:11;;;;;;;14.20;10.30;;;13.00;99.90;;;;;;7382532;19;20174;-78
2023/04/19 12:18:50;;;;;;;13.37;9.73;;;12.90;99.90;;;;;;7388186;19;20481;-77
2023/04/19 12:21:31;;;;;;;13.80;9.77;;;12.80;99.90;;;;;;7386317;19;20122;-78
2023/04/19 12:23:59;;;;;;;15.10;10.33;;;12.80;99.90;;;;;;7388619;19;20219;-77
2023/04/19 12:26:29;;;;;;;15.60;9.90;;;12.80;99.90;;;;;;7381771;19;20321;-76
2023/04/19 12:28:59;;;;;;;12.63;9.03;;;12.70;99.90;;;;;;7387840;19;20139;-75
2023/04/19 12:31:26;;;;;;;13.07;10.70;;;12.60;99.90;;;;;;7380630;19;20141;-76
2023/04/19 12:33:52;;;;;;;13.43;9.90;;;12.70;99.90;;;;;;7386678;19;20151;-75
2023/04/19 12:36:18;;;;;;;16.23;10.17;;;12.70;99.90;;;;;;7386403;19;20134;-76
2023/04/19 12:38:45;;;;;;;14.63;10.23;;;12.70;99.90;;;;;;7388117;19;20135;-75
2023/04/19 12:41:11;;;;;;;12.77;9.70;;;12.70;99.90;;;;;;7383664;19;20178;-75